sensor_id;sensor_type;location;lat;lon;timestamp;temperature;humidity
47757;SHT35;22147;52.388;13.390;2023-10-19T00:02:17;6.56;78.46
47757;SHT35;22147;52.388;13.390;2023-10-19T00:04:47;6.56;78.57
47757;SHT35;22147;52.388;13.390;2023-10-19T00:07:17;6.55;78.70
47757;SHT35;22147;52.388;13.390;2023-10-19T00:09:47;6.55;78.81
47757;SHT35;22147;52.388;13.390;2023-10-19T00:12:20;6.52;78.72
47757;SHT35;22147;52.388;13.390;2023-10-19T00:14:51;6.56;78.74
47757;SHT35;22147;52.388;13.390;2023-10-19T00:17:23;6.56;78.57
47757;SHT35;22147;52.388;13.390;2023-10-19T00:19:57;6.58;78.48
47757;SHT35;22147;52.388;13.390;2023-10-19T00:22:56;6.55;78.54
47757;SHT35;22147;52.388;13.390;2023-10-19T00:25:28;6.52;78.60
47757;SHT35;22147;52.388;13.390;2023-10-19T00:27:59;6.46;78.63
47757;SHT35;22147;52.388;13.390;2023-10-19T00:30:31;6.49;78.74
47757;SHT35;22147;52.388;13.390;2023-10-19T00:33:05;6.46;78.68
47757;SHT35;22147;52.388;13.390;2023-10-19T00:35:48;6.48;78.61
47757;SHT35;22147;52.388;13.390;2023-10-19T00:38:29;6.45;78.61
47757;SHT35;22147;52.388;13.390;2023-10-19T00:41:07;6.42;78.61
47757;SHT35;22147;52.388;13.390;2023-10-19T00:43:42;6.44;78.81
47757;SHT35;22147;52.388;13.390;2023-10-19T00:46:19;6.41;78.74
47757;SHT35;22147;52.388;13.390;2023-10-19T00:49:01;6.42;78.78
47757;SHT35;22147;52.388;13.390;2023-10-19T00:51:51;6.46;78.65
47757;SHT35;22147;52.388;13.390;2023-10-19T00:54:32;6.45;78.53
47757;SHT35;22147;52.388;13.390;2023-10-19T00:57:04;6.45;78.61
47757;SHT35;22147;52.388;13.390;2023-10-19T00:59:41;6.44;78.64
47757;SHT35;22147;52.388;13.390;2023-10-19T01:02:24;6.44;78.53
47757;SHT35;22147;52.388;13.390;2023-10-19T01:04:58;6.38;78.74
47757;SHT35;22147;52.388;13.390;2023-10-19T01:07:51;6.38;78.95
47757;SHT35;22147;52.388;13.390;2023-10-19T01:10:26;6.42;78.94
47757;SHT35;22147;52.388;13.390;2023-10-19T01:12:58;6.37;78.91
47757;SHT35;22147;52.388;13.390;2023-10-19T01:15:29;6.37;78.85
47757;SHT35;22147;52.388;13.390;2023-10-19T01:17:59;6.41;78.98
47757;SHT35;22147;52.388;13.390;2023-10-19T01:20:32;6.34;78.99
47757;SHT35;22147;52.388;13.390;2023-10-19T01:23:07;6.35;79.01
47757;SHT35;22147;52.388;13.390;2023-10-19T01:25:45;6.40;79.24
47757;SHT35;22147;52.388;13.390;2023-10-19T01:28:19;6.38;79.24
47757;SHT35;22147;52.388;13.390;2023-10-19T01:30:50;6.37;79.33
47757;SHT35;22147;52.388;13.390;2023-10-19T01:33:21;6.35;79.28
47757;SHT35;22147;52.388;13.390;2023-10-19T01:35:52;6.42;79.16
47757;SHT35;22147;52.388;13.390;2023-10-19T01:38:41;6.38;79.22
47757;SHT35;22147;52.388;13.390;2023-10-19T01:41:11;6.41;79.28
47757;SHT35;22147;52.388;13.390;2023-10-19T01:43:51;6.41;79.13
47757;SHT35;22147;52.388;13.390;2023-10-19T01:46:25;6.45;79.14
47757;SHT35;22147;52.388;13.390;2023-10-19T01:49:05;6.42;78.92
47757;SHT35;22147;52.388;13.390;2023-10-19T01:51:36;6.45;78.97
47757;SHT35;22147;52.388;13.390;2023-10-19T01:54:09;6.38;79.01
47757;SHT35;22147;52.388;13.390;2023-10-19T01:56:40;6.37;79.19
47757;SHT35;22147;52.388;13.390;2023-10-19T01:59:13;6.37;79.33
47757;SHT35;22147;52.388;13.390;2023-10-19T02:01:45;6.41;79.22
47757;SHT35;22147;52.388;13.390;2023-10-19T02:04:15;6.38;79.20
47757;SHT35;22147;52.388;13.390;2023-10-19T02:06:45;6.37;79.16
47757;SHT35;22147;52.388;13.390;2023-10-19T02:09:20;6.38;79.15
47757;SHT35;22147;52.388;13.390;2023-10-19T02:11:54;6.40;79.11
47757;SHT35;22147;52.388;13.390;2023-10-19T02:14:27;6.40;79.23
47757;SHT35;22147;52.388;13.390;2023-10-19T02:17:01;6.40;79.16
47757;SHT35;22147;52.388;13.390;2023-10-19T02:19:32;6.40;79.18
47757;SHT35;22147;52.388;13.390;2023-10-19T02:22:03;6.42;78.99
47757;SHT35;22147;52.388;13.390;2023-10-19T02:24:40;6.45;78.92
47757;SHT35;22147;52.388;13.390;2023-10-19T02:27:08;6.45;78.87
47757;SHT35;22147;52.388;13.390;2023-10-19T02:29:48;6.46;79.01
47757;SHT35;22147;52.388;13.390;2023-10-19T02:32:18;6.48;78.90
47757;SHT35;22147;52.388;13.390;2023-10-19T02:34:49;6.49;78.90
47757;SHT35;22147;52.388;13.390;2023-10-19T02:37:19;6.52;78.71
47757;SHT35;22147;52.388;13.390;2023-10-19T02:39:49;6.53;78.89
47757;SHT35;22147;52.388;13.390;2023-10-19T02:42:19;6.56;78.70
47757;SHT35;22147;52.388;13.390;2023-10-19T02:44:52;6.53;78.61
47757;SHT35;22147;52.388;13.390;2023-10-19T02:47:22;6.55;78.49
47757;SHT35;22147;52.388;13.390;2023-10-19T02:49:52;6.53;78.68
47757;SHT35;22147;52.388;13.390;2023-10-19T02:52:26;6.53;78.71
47757;SHT35;22147;52.388;13.390;2023-10-19T02:54:57;6.53;78.74
47757;SHT35;22147;52.388;13.390;2023-10-19T02:57:28;6.51;78.71
47757;SHT35;22147;52.388;13.390;2023-10-19T02:59:59;6.55;78.71
47757;SHT35;22147;52.388;13.390;2023-10-19T03:02:30;6.53;78.61
47757;SHT35;22147;52.388;13.390;2023-10-19T03:05:00;6.55;78.80
47757;SHT35;22147;52.388;13.390;2023-10-19T03:07:31;6.58;78.77
47757;SHT35;22147;52.388;13.390;2023-10-19T03:10:01;6.56;78.90
47757;SHT35;22147;52.388;13.390;2023-10-19T03:12:32;6.56;78.60
47757;SHT35;22147;52.388;13.390;2023-10-19T03:15:03;6.61;78.49
47757;SHT35;22147;52.388;13.390;2023-10-19T03:17:35;6.61;78.51
47757;SHT35;22147;52.388;13.390;2023-10-19T03:20:09;6.59;78.39
47757;SHT35;22147;52.388;13.390;2023-10-19T03:22:42;6.61;78.48
47757;SHT35;22147;52.388;13.390;2023-10-19T03:25:13;6.62;78.42
47757;SHT35;22147;52.388;13.390;2023-10-19T03:28:02;6.62;78.54
47757;SHT35;22147;52.388;13.390;2023-10-19T03:30:41;6.61;78.46
47757;SHT35;22147;52.388;13.390;2023-10-19T03:33:11;6.61;78.48
47757;SHT35;22147;52.388;13.390;2023-10-19T03:35:42;6.61;78.65
47757;SHT35;22147;52.388;13.390;2023-10-19T03:38:12;6.58;78.76
47757;SHT35;22147;52.388;13.390;2023-10-19T03:40:47;6.64;78.78
47757;SHT35;22147;52.388;13.390;2023-10-19T03:43:29;6.65;78.34
47757;SHT35;22147;52.388;13.390;2023-10-19T03:46:03;6.64;78.57
47757;SHT35;22147;52.388;13.390;2023-10-19T03:48:40;6.58;78.77
47757;SHT35;22147;52.388;13.390;2023-10-19T03:51:08;6.59;78.74
47757;SHT35;22147;52.388;13.390;2023-10-19T03:53:42;6.59;78.63
47757;SHT35;22147;52.388;13.390;2023-10-19T03:56:18;6.61;78.71
47757;SHT35;22147;52.388;13.390;2023-10-19T03:58:48;6.59;78.73
47757;SHT35;22147;52.388;13.390;2023-10-19T04:01:20;6.59;78.68
47757;SHT35;22147;52.388;13.390;2023-10-19T04:03:51;6.56;78.67
47757;SHT35;22147;52.388;13.390;2023-10-19T04:06:25;6.59;78.68
47757;SHT35;22147;52.388;13.390;2023-10-19T04:08:57;6.56;78.71
47757;SHT35;22147;52.388;13.390;2023-10-19T04:11:28;6.55;78.52
47757;SHT35;22147;52.388;13.390;2023-10-19T04:14:03;6.53;78.60
47757;SHT35;22147;52.388;13.390;2023-10-19T04:16:34;6.51;78.62
47757;SHT35;22147;52.388;13.390;2023-10-19T04:19:29;6.59;78.66
47757;SHT35;22147;52.388;13.390;2023-10-19T04:21:59;6.53;78.69
47757;SHT35;22147;52.388;13.390;2023-10-19T04:24:30;6.53;78.94
47757;SHT35;22147;52.388;13.390;2023-10-19T04:27:03;6.49;78.82
47757;SHT35;22147;52.388;13.390;2023-10-19T04:29:33;6.49;79.10
47757;SHT35;22147;52.388;13.390;2023-10-19T04:32:05;6.51;79.08
47757;SHT35;22147;52.388;13.390;2023-10-19T04:34:37;6.51;79.01
47757;SHT35;22147;52.388;13.390;2023-10-19T04:37:07;6.53;79.16
47757;SHT35;22147;52.388;13.390;2023-10-19T04:39:38;6.53;79.03
47757;SHT35;22147;52.388;13.390;2023-10-19T04:42:08;6.53;79.01
47757;SHT35;22147;52.388;13.390;2023-10-19T04:44:39;6.52;78.81
47757;SHT35;22147;52.388;13.390;2023-10-19T04:47:10;6.52;79.00
47757;SHT35;22147;52.388;13.390;2023-10-19T04:49:40;6.48;78.92
47757;SHT35;22147;52.388;13.390;2023-10-19T04:52:11;6.51;78.69
47757;SHT35;22147;52.388;13.390;2023-10-19T04:54:42;6.49;78.81
47757;SHT35;22147;52.388;13.390;2023-10-19T04:57:12;6.49;78.85
47757;SHT35;22147;52.388;13.390;2023-10-19T04:59:42;6.46;78.93
47757;SHT35;22147;52.388;13.390;2023-10-19T05:02:15;6.49;78.72
47757;SHT35;22147;52.388;13.390;2023-10-19T05:04:47;6.51;78.77
47757;SHT35;22147;52.388;13.390;2023-10-19T05:07:17;6.49;78.97
47757;SHT35;22147;52.388;13.390;2023-10-19T05:09:48;6.52;78.79
47757;SHT35;22147;52.388;13.390;2023-10-19T05:12:18;6.52;78.81
47757;SHT35;22147;52.388;13.390;2023-10-19T05:14:49;6.52;78.96
47757;SHT35;22147;52.388;13.390;2023-10-19T05:17:20;6.48;79.37
47757;SHT35;22147;52.388;13.390;2023-10-19T05:19:51;6.45;79.83
47757;SHT35;22147;52.388;13.390;2023-10-19T05:22:21;6.46;80.07
47757;SHT35;22147;52.388;13.390;2023-10-19T05:24:55;6.46;80.51
47757;SHT35;22147;52.388;13.390;2023-10-19T05:27:26;6.44;80.45
47757;SHT35;22147;52.388;13.390;2023-10-19T05:29:56;6.44;80.89
47757;SHT35;22147;52.388;13.390;2023-10-19T05:32:24;6.41;80.21
47757;SHT35;22147;52.388;13.390;2023-10-19T05:34:53;6.41;80.30
47757;SHT35;22147;52.388;13.390;2023-10-19T05:37:22;6.42;80.63
47757;SHT35;22147;52.388;13.390;2023-10-19T05:39:50;6.40;81.05
47757;SHT35;22147;52.388;13.390;2023-10-19T05:42:21;6.42;80.78
47757;SHT35;22147;52.388;13.390;2023-10-19T05:44:52;6.42;80.88
47757;SHT35;22147;52.388;13.390;2023-10-19T05:47:23;6.40;81.21
47757;SHT35;22147;52.388;13.390;2023-10-19T05:49:53;6.41;81.54
47757;SHT35;22147;52.388;13.390;2023-10-19T05:52:24;6.38;81.40
47757;SHT35;22147;52.388;13.390;2023-10-19T05:54:52;6.34;81.65
47757;SHT35;22147;52.388;13.390;2023-10-19T05:57:21;6.34;82.04
47757;SHT35;22147;52.388;13.390;2023-10-19T05:59:52;6.32;82.29
47757;SHT35;22147;52.388;13.390;2023-10-19T06:02:20;6.28;82.60
47757;SHT35;22147;52.388;13.390;2023-10-19T06:05:02;6.31;83.12
47757;SHT35;22147;52.388;13.390;2023-10-19T06:07:35;6.34;83.33
47757;SHT35;22147;52.388;13.390;2023-10-19T06:10:06;6.31;83.63
47757;SHT35;22147;52.388;13.390;2023-10-19T06:12:36;6.25;83.84
47757;SHT35;22147;52.388;13.390;2023-10-19T06:15:08;6.25;84.27
47757;SHT35;22147;52.388;13.390;2023-10-19T06:17:43;6.24;84.50
47757;SHT35;22147;52.388;13.390;2023-10-19T06:20:15;6.17;84.67
47757;SHT35;22147;52.388;13.390;2023-10-19T06:22:58;6.18;84.82
47757;SHT35;22147;52.388;13.390;2023-10-19T06:25:34;6.16;85.08
47757;SHT35;22147;52.388;13.390;2023-10-19T06:28:06;6.25;85.00
47757;SHT35;22147;52.388;13.390;2023-10-19T06:30:37;6.17;85.12
47757;SHT35;22147;52.388;13.390;2023-10-19T06:33:07;6.11;85.18
47757;SHT35;22147;52.388;13.390;2023-10-19T06:35:38;6.10;84.93
47757;SHT35;22147;52.388;13.390;2023-10-19T06:38:08;6.11;85.27
47757;SHT35;22147;52.388;13.390;2023-10-19T06:40:39;6.10;85.29
47757;SHT35;22147;52.388;13.390;2023-10-19T06:43:10;6.09;85.30
47757;SHT35;22147;52.388;13.390;2023-10-19T06:45:44;6.11;85.16
47757;SHT35;22147;52.388;13.390;2023-10-19T06:48:14;6.03;84.96
47757;SHT35;22147;52.388;13.390;2023-10-19T06:50:45;6.01;85.20
47757;SHT35;22147;52.388;13.390;2023-10-19T06:53:20;6.10;85.19
47757;SHT35;22147;52.388;13.390;2023-10-19T06:55:51;6.17;85.26
47757;SHT35;22147;52.388;13.390;2023-10-19T06:58:22;6.21;85.31
47757;SHT35;22147;52.388;13.390;2023-10-19T07:00:56;6.18;85.18
47757;SHT35;22147;52.388;13.390;2023-10-19T07:03:26;6.21;85.03
47757;SHT35;22147;52.388;13.390;2023-10-19T07:05:58;6.21;84.90
47757;SHT35;22147;52.388;13.390;2023-10-19T07:08:30;6.20;85.08
47757;SHT35;22147;52.388;13.390;2023-10-19T07:11:00;6.17;84.92
47757;SHT35;22147;52.388;13.390;2023-10-19T07:13:30;6.21;85.19
47757;SHT35;22147;52.388;13.390;2023-10-19T07:16:04;6.24;85.19
47757;SHT35;22147;52.388;13.390;2023-10-19T07:18:34;6.27;85.09
47757;SHT35;22147;52.388;13.390;2023-10-19T07:21:06;6.28;84.95
47757;SHT35;22147;52.388;13.390;2023-10-19T07:23:37;6.25;84.85
47757;SHT35;22147;52.388;13.390;2023-10-19T07:26:10;6.24;84.78
47757;SHT35;22147;52.388;13.390;2023-10-19T07:28:41;6.31;85.08
47757;SHT35;22147;52.388;13.390;2023-10-19T07:31:12;6.37;85.02
47757;SHT35;22147;52.388;13.390;2023-10-19T07:33:44;6.37;84.61
47757;SHT35;22147;52.388;13.390;2023-10-19T07:36:16;6.41;84.42
47757;SHT35;22147;52.388;13.390;2023-10-19T07:38:48;6.45;84.44
47757;SHT35;22147;52.388;13.390;2023-10-19T07:41:18;6.58;84.20
47757;SHT35;22147;52.388;13.390;2023-10-19T07:43:48;6.53;83.92
47757;SHT35;22147;52.388;13.390;2023-10-19T07:46:19;6.53;83.86
47757;SHT35;22147;52.388;13.390;2023-10-19T07:48:49;6.61;84.10
47757;SHT35;22147;52.388;13.390;2023-10-19T07:51:19;6.67;84.32
47757;SHT35;22147;52.388;13.390;2023-10-19T07:53:50;6.67;84.20
47757;SHT35;22147;52.388;13.390;2023-10-19T07:56:21;6.62;84.08
47757;SHT35;22147;52.388;13.390;2023-10-19T07:58:52;6.69;84.50
47757;SHT35;22147;52.388;13.390;2023-10-19T08:01:22;6.68;84.24
47757;SHT35;22147;52.388;13.390;2023-10-19T08:03:53;6.68;84.28
47757;SHT35;22147;52.388;13.390;2023-10-19T08:06:23;6.68;84.01
47757;SHT35;22147;52.388;13.390;2023-10-19T08:08:54;6.68;84.22
47757;SHT35;22147;52.388;13.390;2023-10-19T08:11:25;6.73;84.49
47757;SHT35;22147;52.388;13.390;2023-10-19T08:13:55;6.73;84.46
47757;SHT35;22147;52.388;13.390;2023-10-19T08:16:26;6.78;84.57
47757;SHT35;22147;52.388;13.390;2023-10-19T08:18:58;6.85;84.59
47757;SHT35;22147;52.388;13.390;2023-10-19T08:21:28;6.89;84.28
47757;SHT35;22147;52.388;13.390;2023-10-19T08:23:58;6.96;84.40
47757;SHT35;22147;52.388;13.390;2023-10-19T08:26:29;6.97;84.33
47757;SHT35;22147;52.388;13.390;2023-10-19T08:29:00;7.07;84.46
47757;SHT35;22147;52.388;13.390;2023-10-19T08:31:30;7.13;84.19
47757;SHT35;22147;52.388;13.390;2023-10-19T08:34:01;7.16;83.96
47757;SHT35;22147;52.388;13.390;2023-10-19T08:36:32;7.16;83.84
47757;SHT35;22147;52.388;13.390;2023-10-19T08:39:06;7.21;83.78
47757;SHT35;22147;52.388;13.390;2023-10-19T08:41:39;7.21;83.52
47757;SHT35;22147;52.388;13.390;2023-10-19T08:44:11;7.26;83.74
47757;SHT35;22147;52.388;13.390;2023-10-19T08:46:44;7.27;83.43
47757;SHT35;22147;52.388;13.390;2023-10-19T08:49:15;7.21;83.65
47757;SHT35;22147;52.388;13.390;2023-10-19T08:51:46;7.17;83.43
47757;SHT35;22147;52.388;13.390;2023-10-19T08:54:17;7.16;83.67
47757;SHT35;22147;52.388;13.390;2023-10-19T08:56:47;7.20;84.07
47757;SHT35;22147;52.388;13.390;2023-10-19T08:59:18;7.18;83.52
47757;SHT35;22147;52.388;13.390;2023-10-19T09:01:48;7.20;83.69
47757;SHT35;22147;52.388;13.390;2023-10-19T09:04:19;7.26;83.93
47757;SHT35;22147;52.388;13.390;2023-10-19T09:06:53;7.26;83.61
47757;SHT35;22147;52.388;13.390;2023-10-19T09:09:28;7.23;83.92
47757;SHT35;22147;52.388;13.390;2023-10-19T09:12:03;7.24;83.83
47757;SHT35;22147;52.388;13.390;2023-10-19T09:14:36;7.24;84.09
47757;SHT35;22147;52.388;13.390;2023-10-19T09:17:13;7.18;84.14
47757;SHT35;22147;52.388;13.390;2023-10-19T09:19:45;7.24;84.23
47757;SHT35;22147;52.388;13.390;2023-10-19T09:22:19;7.26;84.14
47757;SHT35;22147;52.388;13.390;2023-10-19T09:24:52;7.28;84.34
47757;SHT35;22147;52.388;13.390;2023-10-19T09:27:24;7.30;84.52
47757;SHT35;22147;52.388;13.390;2023-10-19T09:29:55;7.30;84.76
47757;SHT35;22147;52.388;13.390;2023-10-19T09:32:29;7.38;85.09
47757;SHT35;22147;52.388;13.390;2023-10-19T09:35:02;7.37;84.87
47757;SHT35;22147;52.388;13.390;2023-10-19T09:37:34;7.34;85.28
47757;SHT35;22147;52.388;13.390;2023-10-19T09:40:09;7.31;85.58
47757;SHT35;22147;52.388;13.390;2023-10-19T09:42:44;7.30;85.88
47757;SHT35;22147;52.388;13.390;2023-10-19T09:45:21;7.27;86.05
47757;SHT35;22147;52.388;13.390;2023-10-19T09:47:54;7.30;86.32
47757;SHT35;22147;52.388;13.390;2023-10-19T09:50:23;7.30;86.63
47757;SHT35;22147;52.388;13.390;2023-10-19T09:52:55;7.28;86.70
47757;SHT35;22147;52.388;13.390;2023-10-19T09:55:40;7.30;87.05
47757;SHT35;22147;52.388;13.390;2023-10-19T09:58:24;7.24;87.51
47757;SHT35;22147;52.388;13.390;2023-10-19T10:00:55;7.11;88.01
47757;SHT35;22147;52.388;13.390;2023-10-19T10:03:53;7.14;88.39
47757;SHT35;22147;52.388;13.390;2023-10-19T10:09:26;7.11;88.72
47757;SHT35;22147;52.388;13.390;2023-10-19T10:11:54;7.16;88.87
47757;SHT35;22147;52.388;13.390;2023-10-19T10:14:26;7.18;88.85
47757;SHT35;22147;52.388;13.390;2023-10-19T10:17:02;7.18;88.71
47757;SHT35;22147;52.388;13.390;2023-10-19T10:19:33;7.13;88.89
47757;SHT35;22147;52.388;13.390;2023-10-19T10:22:10;7.13;89.33
47757;SHT35;22147;52.388;13.390;2023-10-19T10:24:44;7.16;89.60
47757;SHT35;22147;52.388;13.390;2023-10-19T10:27:16;7.18;89.85
47757;SHT35;22147;52.388;13.390;2023-10-19T10:29:59;7.17;89.95
47757;SHT35;22147;52.388;13.390;2023-10-19T10:32:52;7.20;90.17
47757;SHT35;22147;52.388;13.390;2023-10-19T10:38:10;7.17;90.36
47757;SHT35;22147;52.388;13.390;2023-10-19T10:40:50;7.17;90.43
47757;SHT35;22147;52.388;13.390;2023-10-19T10:43:20;7.20;90.58
47757;SHT35;22147;52.388;13.390;2023-10-19T10:45:51;7.18;90.57
47757;SHT35;22147;52.388;13.390;2023-10-19T10:48:22;7.20;90.69
47757;SHT35;22147;52.388;13.390;2023-10-19T10:50:53;7.26;90.79
47757;SHT35;22147;52.388;13.390;2023-10-19T10:53:26;7.23;90.85
47757;SHT35;22147;52.388;13.390;2023-10-19T10:56:00;7.27;91.00
47757;SHT35;22147;52.388;13.390;2023-10-19T10:58:31;7.34;91.15
47757;SHT35;22147;52.388;13.390;2023-10-19T11:01:01;7.40;91.18
47757;SHT35;22147;52.388;13.390;2023-10-19T11:03:29;7.46;91.20
47757;SHT35;22147;52.388;13.390;2023-10-19T11:06:06;7.43;91.06
47757;SHT35;22147;52.388;13.390;2023-10-19T11:08:39;7.44;90.98
47757;SHT35;22147;52.388;13.390;2023-10-19T11:11:09;7.38;90.91
47757;SHT35;22147;52.388;13.390;2023-10-19T11:13:43;7.40;90.84
47757;SHT35;22147;52.388;13.390;2023-10-19T11:16:22;7.43;90.95
47757;SHT35;22147;52.388;13.390;2023-10-19T11:18:53;7.41;90.79
47757;SHT35;22147;52.388;13.390;2023-10-19T11:21:23;7.37;90.71
47757;SHT35;22147;52.388;13.390;2023-10-19T11:23:54;7.40;90.95
47757;SHT35;22147;52.388;13.390;2023-10-19T11:26:25;7.44;90.98
47757;SHT35;22147;52.388;13.390;2023-10-19T11:29:03;7.44;90.85
47757;SHT35;22147;52.388;13.390;2023-10-19T11:31:37;7.38;90.74
47757;SHT35;22147;52.388;13.390;2023-10-19T11:34:08;7.38;90.51
47757;SHT35;22147;52.388;13.390;2023-10-19T11:36:53;7.43;90.62
47757;SHT35;22147;52.388;13.390;2023-10-19T11:39:26;7.40;90.59
47757;SHT35;22147;52.388;13.390;2023-10-19T11:41:57;7.34;90.66
47757;SHT35;22147;52.388;13.390;2023-10-19T11:44:27;7.37;90.79
47757;SHT35;22147;52.388;13.390;2023-10-19T11:46:57;7.32;90.81
47757;SHT35;22147;52.388;13.390;2023-10-19T11:49:27;7.30;90.87
47757;SHT35;22147;52.388;13.390;2023-10-19T11:51:57;7.32;91.03
47757;SHT35;22147;52.388;13.390;2023-10-19T11:54:27;7.34;91.14
47757;SHT35;22147;52.388;13.390;2023-10-19T11:56:57;7.34;91.20
47757;SHT35;22147;52.388;13.390;2023-10-19T11:59:27;7.40;91.19
47757;SHT35;22147;52.388;13.390;2023-10-19T12:01:57;7.37;91.19
47757;SHT35;22147;52.388;13.390;2023-10-19T12:04:29;7.37;91.17
47757;SHT35;22147;52.388;13.390;2023-10-19T12:06:59;7.35;91.16
47757;SHT35;22147;52.388;13.390;2023-10-19T12:09:31;7.35;91.10
47757;SHT35;22147;52.388;13.390;2023-10-19T12:12:01;7.37;91.11
47757;SHT35;22147;52.388;13.390;2023-10-19T12:14:30;7.43;91.20
47757;SHT35;22147;52.388;13.390;2023-10-19T12:17:03;7.46;91.19
47757;SHT35;22147;52.388;13.390;2023-10-19T12:19:33;7.43;90.99
47757;SHT35;22147;52.388;13.390;2023-10-19T12:22:03;7.41;91.02
47757;SHT35;22147;52.388;13.390;2023-10-19T12:24:33;7.38;91.14
47757;SHT35;22147;52.388;13.390;2023-10-19T12:27:03;7.38;91.21
47757;SHT35;22147;52.388;13.390;2023-10-19T12:29:33;7.40;91.27
47757;SHT35;22147;52.388;13.390;2023-10-19T12:32:04;7.44;91.39
47757;SHT35;22147;52.388;13.390;2023-10-19T12:34:35;7.46;91.32
47757;SHT35;22147;52.388;13.390;2023-10-19T12:37:04;7.44;91.34
47757;SHT35;22147;52.388;13.390;2023-10-19T12:39:34;7.47;91.54
47757;SHT35;22147;52.388;13.390;2023-10-19T12:42:05;7.46;91.48
47757;SHT35;22147;52.388;13.390;2023-10-19T12:44:37;7.46;91.48
47757;SHT35;22147;52.388;13.390;2023-10-19T12:47:17;7.51;91.58
47757;SHT35;22147;52.388;13.390;2023-10-19T12:49:45;7.51;91.68
47757;SHT35;22147;52.388;13.390;2023-10-19T12:52:13;7.51;91.71
47757;SHT35;22147;52.388;13.390;2023-10-19T12:54:42;7.51;91.66
47757;SHT35;22147;52.388;13.390;2023-10-19T12:57:16;7.59;91.78
47757;SHT35;22147;52.388;13.390;2023-10-19T12:59:45;7.58;91.68
47757;SHT35;22147;52.388;13.390;2023-10-19T13:02:13;7.58;91.68
47757;SHT35;22147;52.388;13.390;2023-10-19T13:04:45;7.57;91.63
47757;SHT35;22147;52.388;13.390;2023-10-19T13:07:16;7.52;91.58
47757;SHT35;22147;52.388;13.390;2023-10-19T13:09:46;7.62;91.66
47757;SHT35;22147;52.388;13.390;2023-10-19T13:12:18;7.62;91.54
47757;SHT35;22147;52.388;13.390;2023-10-19T13:14:53;7.61;91.48
47757;SHT35;22147;52.388;13.390;2023-10-19T13:17:26;7.59;91.37
47757;SHT35;22147;52.388;13.390;2023-10-19T13:19:56;7.55;91.31
47757;SHT35;22147;52.388;13.390;2023-10-19T13:22:31;7.55;91.34
47757;SHT35;22147;52.388;13.390;2023-10-19T13:25:04;7.55;91.39
47757;SHT35;22147;52.388;13.390;2023-10-19T13:27:36;7.62;91.41
47757;SHT35;22147;52.388;13.390;2023-10-19T13:30:08;7.59;91.29
47757;SHT35;22147;52.388;13.390;2023-10-19T13:32:41;7.58;91.29
47757;SHT35;22147;52.388;13.390;2023-10-19T13:35:12;7.64;91.36
47757;SHT35;22147;52.388;13.390;2023-10-19T13:37:43;7.61;91.33
47757;SHT35;22147;52.388;13.390;2023-10-19T13:40:14;7.54;91.26
47757;SHT35;22147;52.388;13.390;2023-10-19T13:42:44;7.66;91.23
47757;SHT35;22147;52.388;13.390;2023-10-19T13:45:17;7.57;91.19
47757;SHT35;22147;52.388;13.390;2023-10-19T13:47:48;7.50;91.12
47757;SHT35;22147;52.388;13.390;2023-10-19T13:50:18;7.47;91.19
47757;SHT35;22147;52.388;13.390;2023-10-19T13:52:53;7.43;91.21
47757;SHT35;22147;52.388;13.390;2023-10-19T13:55:23;7.40;91.24
47757;SHT35;22147;52.388;13.390;2023-10-19T13:57:55;7.40;91.32
47757;SHT35;22147;52.388;13.390;2023-10-19T14:00:28;7.41;91.42
47757;SHT35;22147;52.388;13.390;2023-10-19T14:03:17;7.46;91.58
47757;SHT35;22147;52.388;13.390;2023-10-19T14:05:48;7.46;91.65
47757;SHT35;22147;52.388;13.390;2023-10-19T14:08:19;7.48;91.68
47757;SHT35;22147;52.388;13.390;2023-10-19T14:10:50;7.47;91.64
47757;SHT35;22147;52.388;13.390;2023-10-19T14:13:20;7.48;91.49
47757;SHT35;22147;52.388;13.390;2023-10-19T14:15:50;7.47;91.46
47757;SHT35;22147;52.388;13.390;2023-10-19T14:18:21;7.52;91.50
47757;SHT35;22147;52.388;13.390;2023-10-19T14:20:51;7.46;91.39
47757;SHT35;22147;52.388;13.390;2023-10-19T14:23:21;7.41;91.34
47757;SHT35;22147;52.388;13.390;2023-10-19T14:25:57;7.48;91.29
47757;SHT35;22147;52.388;13.390;2023-10-19T14:28:28;7.37;91.31
47757;SHT35;22147;52.388;13.390;2023-10-19T14:30:59;7.37;91.39
47757;SHT35;22147;52.388;13.390;2023-10-19T14:33:30;7.34;91.47
47757;SHT35;22147;52.388;13.390;2023-10-19T14:36:01;7.34;91.59
47757;SHT35;22147;52.388;13.390;2023-10-19T14:38:31;7.40;91.67
47757;SHT35;22147;52.388;13.390;2023-10-19T14:41:02;7.40;91.68
47757;SHT35;22147;52.388;13.390;2023-10-19T14:43:30;7.37;91.72
47757;SHT35;22147;52.388;13.390;2023-10-19T14:45:59;7.38;91.78
47757;SHT35;22147;52.388;13.390;2023-10-19T14:48:27;7.46;91.84
47757;SHT35;22147;52.388;13.390;2023-10-19T14:50:59;7.46;91.79
47757;SHT35;22147;52.388;13.390;2023-10-19T14:53:27;7.44;91.79
47757;SHT35;22147;52.388;13.390;2023-10-19T14:55:55;7.38;91.74
47757;SHT35;22147;52.388;13.390;2023-10-19T14:58:27;7.38;91.70
47757;SHT35;22147;52.388;13.390;2023-10-19T15:00:59;7.38;91.79
47757;SHT35;22147;52.388;13.390;2023-10-19T15:03:30;7.40;91.77
47757;SHT35;22147;52.388;13.390;2023-10-19T15:05:58;7.31;91.79
47757;SHT35;22147;52.388;13.390;2023-10-19T15:08:26;7.26;91.86
47757;SHT35;22147;52.388;13.390;2023-10-19T15:10:58;7.27;91.97
47757;SHT35;22147;52.388;13.390;2023-10-19T15:13:26;7.31;92.02
47757;SHT35;22147;52.388;13.390;2023-10-19T15:15:55;7.31;92.07
47757;SHT35;22147;52.388;13.390;2023-10-19T15:18:26;7.34;92.03
47757;SHT35;22147;52.388;13.390;2023-10-19T15:21:06;7.31;92.05
47757;SHT35;22147;52.388;13.390;2023-10-19T15:23:38;7.27;92.11
47757;SHT35;22147;52.388;13.390;2023-10-19T15:26:08;7.30;92.12
47757;SHT35;22147;52.388;13.390;2023-10-19T15:28:38;7.27;92.17
47757;SHT35;22147;52.388;13.390;2023-10-19T15:31:09;7.30;92.21
47757;SHT35;22147;52.388;13.390;2023-10-19T15:33:39;7.32;92.29
47757;SHT35;22147;52.388;13.390;2023-10-19T15:36:11;7.27;92.29
47757;SHT35;22147;52.388;13.390;2023-10-19T15:38:42;7.27;92.26
47757;SHT35;22147;52.388;13.390;2023-10-19T15:41:12;7.30;92.35
47757;SHT35;22147;52.388;13.390;2023-10-19T15:43:45;7.26;92.32
47757;SHT35;22147;52.388;13.390;2023-10-19T15:46:16;7.28;92.37
47757;SHT35;22147;52.388;13.390;2023-10-19T15:48:47;7.27;92.45
47757;SHT35;22147;52.388;13.390;2023-10-19T15:51:17;7.23;92.53
47757;SHT35;22147;52.388;13.390;2023-10-19T15:53:48;7.18;92.57
47757;SHT35;22147;52.388;13.390;2023-10-19T15:56:18;7.18;92.64
47757;SHT35;22147;52.388;13.390;2023-10-19T15:58:48;7.18;92.72
47757;SHT35;22147;52.388;13.390;2023-10-19T16:01:18;7.18;92.79
47757;SHT35;22147;52.388;13.390;2023-10-19T16:03:49;7.20;92.84
47757;SHT35;22147;52.388;13.390;2023-10-19T16:06:20;7.24;92.84
47757;SHT35;22147;52.388;13.390;2023-10-19T16:08:50;7.26;92.82